sensor_id;sensor_type;location;lat;lon;timestamp;P1;durP1;ratioP1;P2;durP2;ratioP2
20078;SDS011;10199;48.850;8.924;2023-10-13T00:01:56;9.23;;;4.10;;
20078;SDS011;10199;48.850;8.924;2023-10-13T00:04:25;9.63;;;4.70;;
20078;SDS011;10199;48.850;8.924;2023-10-13T00:06:53;4.27;;;3.73;;
20078;SDS011;10199;48.850;8.924;2023-10-13T00:09:24;5.90;;;3.50;;
20078;SDS011;10199;48.850;8.924;2023-10-13T00:11:58;9.73;;;4.13;;
20078;SDS011;10199;48.850;8.924;2023-10-13T00:14:27;6.33;;;3.83;;
20078;SDS011;10199;48.850;8.924;2023-10-13T00:17:00;5.73;;;3.90;;
20078;SDS011;10199;48.850;8.924;2023-10-13T00:19:31;7.80;;;3.80;;
20078;SDS011;10199;48.850;8.924;2023-10-13T00:22:05;6.80;;;3.60;;
20078;SDS011;10199;48.850;8.924;2023-10-13T00:24:39;11.07;;;3.93;;
20078;SDS011;10199;48.850;8.924;2023-10-13T00:27:13;7.73;;;4.03;;
20078;SDS011;10199;48.850;8.924;2023-10-13T00:29:59;7.53;;;4.10;;
20078;SDS011;10199;48.850;8.924;2023-10-13T00:32:49;8.13;;;3.47;;
20078;SDS011;10199;48.850;8.924;2023-10-13T00:35:21;5.73;;;4.13;;
20078;SDS011;10199;48.850;8.924;2023-10-13T00:37:54;8.47;;;4.10;;
20078;SDS011;10199;48.850;8.924;2023-10-13T00:40:26;8.10;;;4.10;;
20078;SDS011;10199;48.850;8.924;2023-10-13T00:43:08;9.43;;;4.33;;
20078;SDS011;10199;48.850;8.924;2023-10-13T00:45:54;8.37;;;3.53;;
20078;SDS011;10199;48.850;8.924;2023-10-13T00:48:24;9.23;;;4.43;;
20078;SDS011;10199;48.850;8.924;2023-10-13T00:50:56;10.00;;;3.97;;
20078;SDS011;10199;48.850;8.924;2023-10-13T00:53:26;6.87;;;3.97;;
20078;SDS011;10199;48.850;8.924;2023-10-13T00:55:56;7.23;;;4.13;;
20078;SDS011;10199;48.850;8.924;2023-10-13T00:58:32;4.90;;;3.60;;
20078;SDS011;10199;48.850;8.924;2023-10-13T01:01:00;6.03;;;3.73;;
20078;SDS011;10199;48.850;8.924;2023-10-13T01:03:45;6.27;;;3.87;;
20078;SDS011;10199;48.850;8.924;2023-10-13T01:06:15;5.87;;;3.80;;
20078;SDS011;10199;48.850;8.924;2023-10-13T01:08:45;3.83;;;3.20;;
20078;SDS011;10199;48.850;8.924;2023-10-13T01:11:19;5.97;;;3.47;;
20078;SDS011;10199;48.850;8.924;2023-10-13T01:13:50;8.00;;;3.43;;
20078;SDS011;10199;48.850;8.924;2023-10-13T01:16:18;6.30;;;3.40;;
20078;SDS011;10199;48.850;8.924;2023-10-13T01:18:50;4.80;;;3.60;;
20078;SDS011;10199;48.850;8.924;2023-10-13T01:21:17;5.47;;;3.57;;
20078;SDS011;10199;48.850;8.924;2023-10-13T01:23:48;7.23;;;3.70;;
20078;SDS011;10199;48.850;8.924;2023-10-13T01:26:17;7.30;;;3.43;;
20078;SDS011;10199;48.850;8.924;2023-10-13T01:28:50;5.03;;;3.80;;
20078;SDS011;10199;48.850;8.924;2023-10-13T01:31:18;7.60;;;3.83;;
20078;SDS011;10199;48.850;8.924;2023-10-13T01:33:54;7.70;;;3.60;;
20078;SDS011;10199;48.850;8.924;2023-10-13T01:36:21;7.77;;;3.87;;
20078;SDS011;10199;48.850;8.924;2023-10-13T01:38:51;4.07;;;3.63;;
20078;SDS011;10199;48.850;8.924;2023-10-13T01:41:18;5.23;;;3.70;;
20078;SDS011;10199;48.850;8.924;2023-10-13T01:43:46;6.80;;;3.80;;
20078;SDS011;10199;48.850;8.924;2023-10-13T01:46:15;6.07;;;3.93;;
20078;SDS011;10199;48.850;8.924;2023-10-13T01:48:48;5.37;;;3.60;;
20078;SDS011;10199;48.850;8.924;2023-10-13T01:51:15;5.97;;;4.33;;
20078;SDS011;10199;48.850;8.924;2023-10-13T01:53:43;5.30;;;3.60;;
20078;SDS011;10199;48.850;8.924;2023-10-13T01:56:11;6.17;;;3.40;;
20078;SDS011;10199;48.850;8.924;2023-10-13T01:58:40;7.63;;;3.37;;
20078;SDS011;10199;48.850;8.924;2023-10-13T02:01:09;6.80;;;3.80;;
20078;SDS011;10199;48.850;8.924;2023-10-13T02:03:37;6.53;;;3.50;;
20078;SDS011;10199;48.850;8.924;2023-10-13T02:06:13;9.00;;;3.73;;
20078;SDS011;10199;48.850;8.924;2023-10-13T02:08:44;6.03;;;3.73;;
20078;SDS011;10199;48.850;8.924;2023-10-13T02:11:15;5.43;;;3.67;;
20078;SDS011;10199;48.850;8.924;2023-10-13T02:13:45;6.70;;;3.50;;
20078;SDS011;10199;48.850;8.924;2023-10-13T02:16:15;6.30;;;3.37;;
20078;SDS011;10199;48.850;8.924;2023-10-13T02:18:48;8.53;;;3.60;;
20078;SDS011;10199;48.850;8.924;2023-10-13T02:21:18;6.70;;;3.70;;
20078;SDS011;10199;48.850;8.924;2023-10-13T02:23:46;5.67;;;3.80;;
20078;SDS011;10199;48.850;8.924;2023-10-13T02:26:28;7.87;;;3.60;;
20078;SDS011;10199;48.850;8.924;2023-10-13T02:29:05;5.20;;;3.30;;
20078;SDS011;10199;48.850;8.924;2023-10-13T02:31:34;7.50;;;3.87;;
20078;SDS011;10199;48.850;8.924;2023-10-13T02:34:02;7.57;;;3.40;;
20078;SDS011;10199;48.850;8.924;2023-10-13T02:36:34;8.97;;;3.70;;
20078;SDS011;10199;48.850;8.924;2023-10-13T02:39:04;7.80;;;3.83;;
20078;SDS011;10199;48.850;8.924;2023-10-13T02:41:36;8.43;;;3.73;;
20078;SDS011;10199;48.850;8.924;2023-10-13T02:44:04;6.67;;;3.57;;
20078;SDS011;10199;48.850;8.924;2023-10-13T02:46:34;4.83;;;3.27;;
20078;SDS011;10199;48.850;8.924;2023-10-13T02:49:03;8.97;;;3.73;;
20078;SDS011;10199;48.850;8.924;2023-10-13T02:51:37;7.10;;;3.33;;
20078;SDS011;10199;48.850;8.924;2023-10-13T02:54:08;5.73;;;3.67;;
20078;SDS011;10199;48.850;8.924;2023-10-13T02:56:39;8.80;;;4.10;;
20078;SDS011;10199;48.850;8.924;2023-10-13T02:59:15;4.40;;;3.53;;
20078;SDS011;10199;48.850;8.924;2023-10-13T03:01:46;6.20;;;3.30;;
20078;SDS011;10199;48.850;8.924;2023-10-13T03:04:13;5.60;;;3.30;;
20078;SDS011;10199;48.850;8.924;2023-10-13T03:06:48;4.70;;;3.40;;
20078;SDS011;10199;48.850;8.924;2023-10-13T03:09:16;5.00;;;3.30;;
20078;SDS011;10199;48.850;8.924;2023-10-13T03:11:47;6.73;;;3.40;;
20078;SDS011;10199;48.850;8.924;2023-10-13T03:14:16;6.60;;;3.50;;
20078;SDS011;10199;48.850;8.924;2023-10-13T03:16:51;4.13;;;3.23;;
20078;SDS011;10199;48.850;8.924;2023-10-13T03:19:19;5.30;;;3.30;;
20078;SDS011;10199;48.850;8.924;2023-10-13T03:21:47;6.00;;;3.93;;
20078;SDS011;10199;48.850;8.924;2023-10-13T03:24:21;6.97;;;3.33;;
20078;SDS011;10199;48.850;8.924;2023-10-13T03:27:01;6.07;;;3.80;;
20078;SDS011;10199;48.850;8.924;2023-10-13T03:29:35;7.27;;;3.60;;
20078;SDS011;10199;48.850;8.924;2023-10-13T03:32:05;6.67;;;3.40;;
20078;SDS011;10199;48.850;8.924;2023-10-13T03:34:39;6.37;;;3.00;;
20078;SDS011;10199;48.850;8.924;2023-10-13T03:37:16;5.87;;;3.47;;
20078;SDS011;10199;48.850;8.924;2023-10-13T03:40:01;10.00;;;3.80;;
20078;SDS011;10199;48.850;8.924;2023-10-13T03:42:34;8.27;;;4.10;;
20078;SDS011;10199;48.850;8.924;2023-10-13T03:45:06;5.90;;;3.33;;
20078;SDS011;10199;48.850;8.924;2023-10-13T03:47:37;7.80;;;3.87;;
20078;SDS011;10199;48.850;8.924;2023-10-13T03:50:05;7.43;;;3.40;;
20078;SDS011;10199;48.850;8.924;2023-10-13T03:52:43;6.00;;;3.60;;
20078;SDS011;10199;48.850;8.924;2023-10-13T03:55:11;6.17;;;3.30;;
20078;SDS011;10199;48.850;8.924;2023-10-13T03:57:45;7.97;;;4.20;;
20078;SDS011;10199;48.850;8.924;2023-10-13T04:00:16;6.87;;;3.47;;
20078;SDS011;10199;48.850;8.924;2023-10-13T04:02:51;10.07;;;4.13;;
20078;SDS011;10199;48.850;8.924;2023-10-13T04:05:33;4.87;;;3.67;;
20078;SDS011;10199;48.850;8.924;2023-10-13T04:08:07;5.40;;;3.27;;
20078;SDS011;10199;48.850;8.924;2023-10-13T04:10:54;7.77;;;3.57;;
20078;SDS011;10199;48.850;8.924;2023-10-13T04:13:42;7.67;;;3.60;;
20078;SDS011;10199;48.850;8.924;2023-10-13T04:16:27;6.80;;;3.73;;
20078;SDS011;10199;48.850;8.924;2023-10-13T04:19:05;6.93;;;3.87;;
20078;SDS011;10199;48.850;8.924;2023-10-13T04:21:37;6.23;;;3.30;;
20078;SDS011;10199;48.850;8.924;2023-10-13T04:24:21;6.30;;;3.63;;
20078;SDS011;10199;48.850;8.924;2023-10-13T04:26:54;8.27;;;3.40;;
20078;SDS011;10199;48.850;8.924;2023-10-13T04:29:44;6.97;;;3.80;;
20078;SDS011;10199;48.850;8.924;2023-10-13T04:32:18;5.87;;;3.57;;
20078;SDS011;10199;48.850;8.924;2023-10-13T04:34:55;5.80;;;3.40;;
20078;SDS011;10199;48.850;8.924;2023-10-13T04:37:35;9.90;;;3.60;;
20078;SDS011;10199;48.850;8.924;2023-10-13T04:40:17;7.57;;;4.10;;
20078;SDS011;10199;48.850;8.924;2023-10-13T04:42:46;6.03;;;3.50;;
20078;SDS011;10199;48.850;8.924;2023-10-13T04:45:21;6.90;;;3.73;;
20078;SDS011;10199;48.850;8.924;2023-10-13T04:48:04;6.83;;;4.00;;
20078;SDS011;10199;48.850;8.924;2023-10-13T04:50:44;5.20;;;3.70;;
20078;SDS011;10199;48.850;8.924;2023-10-13T04:53:17;5.07;;;3.17;;
20078;SDS011;10199;48.850;8.924;2023-10-13T04:56:02;5.37;;;3.30;;
20078;SDS011;10199;48.850;8.924;2023-10-13T04:58:47;7.20;;;3.67;;
20078;SDS011;10199;48.850;8.924;2023-10-13T05:01:34;6.00;;;3.60;;
20078;SDS011;10199;48.850;8.924;2023-10-13T05:04:49;7.23;;;3.83;;
20078;SDS011;10199;48.850;8.924;2023-10-13T05:07:35;7.13;;;3.57;;
20078;SDS011;10199;48.850;8.924;2023-10-13T05:10:21;7.93;;;3.67;;
20078;SDS011;10199;48.850;8.924;2023-10-13T05:13:06;5.63;;;3.77;;
20078;SDS011;10199;48.850;8.924;2023-10-13T05:15:52;5.20;;;3.30;;
20078;SDS011;10199;48.850;8.924;2023-10-13T05:18:39;8.97;;;3.83;;
20078;SDS011;10199;48.850;8.924;2023-10-13T05:21:25;4.90;;;3.67;;
20078;SDS011;10199;48.850;8.924;2023-10-13T05:24:10;8.83;;;3.60;;
20078;SDS011;10199;48.850;8.924;2023-10-13T05:26:56;5.43;;;3.20;;
20078;SDS011;10199;48.850;8.924;2023-10-13T05:29:43;6.87;;;3.60;;
20078;SDS011;10199;48.850;8.924;2023-10-13T05:32:30;4.07;;;3.23;;
20078;SDS011;10199;48.850;8.924;2023-10-13T05:35:19;7.90;;;3.70;;
20078;SDS011;10199;48.850;8.924;2023-10-13T05:38:05;4.90;;;3.20;;
20078;SDS011;10199;48.850;8.924;2023-10-13T05:41:00;7.33;;;3.80;;
20078;SDS011;10199;48.850;8.924;2023-10-13T05:43:49;8.70;;;3.80;;
20078;SDS011;10199;48.850;8.924;2023-10-13T05:46:34;5.47;;;3.63;;
20078;SDS011;10199;48.850;8.924;2023-10-13T05:49:15;6.17;;;3.20;;
20078;SDS011;10199;48.850;8.924;2023-10-13T05:52:02;9.03;;;3.43;;
20078;SDS011;10199;48.850;8.924;2023-10-13T05:54:46;7.30;;;3.60;;
20078;SDS011;10199;48.850;8.924;2023-10-13T05:57:32;9.13;;;3.77;;
20078;SDS011;10199;48.850;8.924;2023-10-13T06:00:19;9.77;;;3.47;;
20078;SDS011;10199;48.850;8.924;2023-10-13T06:03:05;7.93;;;4.13;;
20078;SDS011;10199;48.850;8.924;2023-10-13T06:05:51;7.03;;;3.27;;
20078;SDS011;10199;48.850;8.924;2023-10-13T06:08:38;8.23;;;3.67;;
20078;SDS011;10199;48.850;8.924;2023-10-13T06:11:24;5.73;;;3.43;;
20078;SDS011;10199;48.850;8.924;2023-10-13T06:14:18;6.20;;;3.30;;
20078;SDS011;10199;48.850;8.924;2023-10-13T06:17:04;7.27;;;3.73;;
20078;SDS011;10199;48.850;8.924;2023-10-13T06:19:49;6.97;;;3.80;;
20078;SDS011;10199;48.850;8.924;2023-10-13T06:22:35;7.73;;;3.70;;
20078;SDS011;10199;48.850;8.924;2023-10-13T06:25:22;6.43;;;3.37;;
20078;SDS011;10199;48.850;8.924;2023-10-13T06:28:08;6.07;;;3.37;;
20078;SDS011;10199;48.850;8.924;2023-10-13T06:30:55;6.60;;;3.63;;
20078;SDS011;10199;48.850;8.924;2023-10-13T06:33:24;4.43;;;3.20;;
20078;SDS011;10199;48.850;8.924;2023-10-13T06:35:56;5.70;;;3.40;;
20078;SDS011;10199;48.850;8.924;2023-10-13T06:38:24;5.90;;;3.57;;
20078;SDS011;10199;48.850;8.924;2023-10-13T06:40:58;6.80;;;3.40;;
20078;SDS011;10199;48.850;8.924;2023-10-13T06:43:26;7.53;;;3.47;;
20078;SDS011;10199;48.850;8.924;2023-10-13T06:46:00;6.37;;;3.17;;
20078;SDS011;10199;48.850;8.924;2023-10-13T06:48:28;8.37;;;4.07;;
20078;SDS011;10199;48.850;8.924;2023-10-13T06:51:00;5.67;;;3.17;;
20078;SDS011;10199;48.850;8.924;2023-10-13T06:53:31;5.50;;;3.17;;
20078;SDS011;10199;48.850;8.924;2023-10-13T06:56:07;6.80;;;3.80;;
20078;SDS011;10199;48.850;8.924;2023-10-13T06:58:37;7.80;;;3.70;;
20078;SDS011;10199;48.850;8.924;2023-10-13T07:01:09;6.83;;;3.80;;
20078;SDS011;10199;48.850;8.924;2023-10-13T07:03:41;5.57;;;3.50;;
20078;SDS011;10199;48.850;8.924;2023-10-13T07:06:10;6.37;;;3.23;;
20078;SDS011;10199;48.850;8.924;2023-10-13T07:08:44;6.67;;;3.30;;
20078;SDS011;10199;48.850;8.924;2023-10-13T07:11:23;4.53;;;3.10;;
20078;SDS011;10199;48.850;8.924;2023-10-13T07:14:00;9.40;;;3.53;;
20078;SDS011;10199;48.850;8.924;2023-10-13T07:16:42;8.20;;;3.47;;
20078;SDS011;10199;48.850;8.924;2023-10-13T07:19:13;6.17;;;3.50;;
20078;SDS011;10199;48.850;8.924;2023-10-13T07:21:44;6.80;;;3.38;;
20078;SDS011;10199;48.850;8.924;2023-10-13T07:24:12;6.82;;;3.47;;
20078;SDS011;10199;48.850;8.924;2023-10-13T07:26:43;7.88;;;3.60;;
20078;SDS011;10199;48.850;8.924;2023-10-13T07:29:13;7.18;;;3.20;;
20078;SDS011;10199;48.850;8.924;2023-10-13T07:31:41;9.43;;;3.50;;
20078;SDS011;10199;48.850;8.924;2023-10-13T07:34:11;7.97;;;3.83;;
20078;SDS011;10199;48.850;8.924;2023-10-13T07:36:51;7.32;;;3.53;;
20078;SDS011;10199;48.850;8.924;2023-10-13T07:39:21;9.25;;;3.50;;
20078;SDS011;10199;48.850;8.924;2023-10-13T07:41:52;8.00;;;3.35;;
20078;SDS011;10199;48.850;8.924;2023-10-13T07:44:30;7.32;;;3.20;;
20078;SDS011;10199;48.850;8.924;2023-10-13T07:47:00;8.63;;;3.55;;
20078;SDS011;10199;48.850;8.924;2023-10-13T07:49:31;5.35;;;3.17;;
20078;SDS011;10199;48.850;8.924;2023-10-13T07:52:03;6.88;;;3.50;;
20078;SDS011;10199;48.850;8.924;2023-10-13T07:54:52;7.70;;;3.10;;
20078;SDS011;10199;48.850;8.924;2023-10-13T07:57:27;4.63;;;2.97;;
20078;SDS011;10199;48.850;8.924;2023-10-13T07:59:56;5.55;;;3.13;;
20078;SDS011;10199;48.850;8.924;2023-10-13T08:02:39;7.80;;;3.13;;
20078;SDS011;10199;48.850;8.924;2023-10-13T08:05:18;5.43;;;3.03;;
20078;SDS011;10199;48.850;8.924;2023-10-13T08:07:56;5.35;;;3.35;;
20078;SDS011;10199;48.850;8.924;2023-10-13T08:10:24;4.80;;;2.95;;
20078;SDS011;10199;48.850;8.924;2023-10-13T08:12:57;6.78;;;3.60;;
20078;SDS011;10199;48.850;8.924;2023-10-13T08:15:26;4.85;;;3.13;;
20078;SDS011;10199;48.850;8.924;2023-10-13T08:17:59;4.63;;;2.70;;
20078;SDS011;10199;48.850;8.924;2023-10-13T08:20:31;9.32;;;3.40;;
20078;SDS011;10199;48.850;8.924;2023-10-13T08:23:05;6.13;;;3.47;;
20078;SDS011;10199;48.850;8.924;2023-10-13T08:25:40;4.75;;;3.53;;
20078;SDS011;10199;48.850;8.924;2023-10-13T08:28:35;5.07;;;2.63;;
20078;SDS011;10199;48.850;8.924;2023-10-13T08:31:22;5.68;;;2.92;;
20078;SDS011;10199;48.850;8.924;2023-10-13T08:33:52;6.38;;;3.40;;
20078;SDS011;10199;48.850;8.924;2023-10-13T08:36:32;7.40;;;2.85;;
20078;SDS011;10199;48.850;8.924;2023-10-13T08:39:04;6.55;;;2.92;;
20078;SDS011;10199;48.850;8.924;2023-10-13T08:42:03;6.57;;;2.95;;
20078;SDS011;10199;48.850;8.924;2023-10-13T08:44:40;4.85;;;2.90;;
20078;SDS011;10199;48.850;8.924;2023-10-13T08:47:14;5.00;;;3.22;;
20078;SDS011;10199;48.850;8.924;2023-10-13T08:49:46;5.05;;;2.83;;
20078;SDS011;10199;48.850;8.924;2023-10-13T08:52:18;5.65;;;3.05;;
20078;SDS011;10199;48.850;8.924;2023-10-13T08:55:12;5.85;;;3.30;;
20078;SDS011;10199;48.850;8.924;2023-10-13T08:57:55;4.28;;;2.88;;
20078;SDS011;10199;48.850;8.924;2023-10-13T09:00:31;5.10;;;3.15;;
20078;SDS011;10199;48.850;8.924;2023-10-13T09:03:14;4.55;;;2.80;;
20078;SDS011;10199;48.850;8.924;2023-10-13T09:06:05;5.45;;;3.50;;
20078;SDS011;10199;48.850;8.924;2023-10-13T09:08:33;5.10;;;3.22;;
20078;SDS011;10199;48.850;8.924;2023-10-13T09:11:11;5.63;;;3.05;;
20078;SDS011;10199;48.850;8.924;2023-10-13T09:13:39;5.85;;;3.03;;
20078;SDS011;10199;48.850;8.924;2023-10-13T09:16:14;4.53;;;2.70;;
20078;SDS011;10199;48.850;8.924;2023-10-13T09:19:08;6.10;;;3.30;;
20078;SDS011;10199;48.850;8.924;2023-10-13T09:21:38;6.50;;;2.85;;
20078;SDS011;10199;48.850;8.924;2023-10-13T09:24:21;5.28;;;3.05;;
20078;SDS011;10199;48.850;8.924;2023-10-13T09:26:53;3.30;;;2.75;;
20078;SDS011;10199;48.850;8.924;2023-10-13T09:29:23;8.57;;;3.45;;
20078;SDS011;10199;48.850;8.924;2023-10-13T09:32:00;5.72;;;2.90;;
20078;SDS011;10199;48.850;8.924;2023-10-13T09:34:29;4.65;;;3.00;;
20078;SDS011;10199;48.850;8.924;2023-10-13T09:37:01;6.35;;;3.47;;
20078;SDS011;10199;48.850;8.924;2023-10-13T09:39:29;5.22;;;3.08;;
20078;SDS011;10199;48.850;8.924;2023-10-13T09:42:01;5.60;;;3.22;;
20078;SDS011;10199;48.850;8.924;2023-10-13T09:44:30;4.88;;;3.00;;
20078;SDS011;10199;48.850;8.924;2023-10-13T09:47:01;6.03;;;3.03;;
20078;SDS011;10199;48.850;8.924;2023-10-13T09:49:38;5.03;;;3.05;;
20078;SDS011;10199;48.850;8.924;2023-10-13T09:52:17;4.45;;;3.00;;
20078;SDS011;10199;48.850;8.924;2023-10-13T09:55:09;5.75;;;3.05;;
20078;SDS011;10199;48.850;8.924;2023-10-13T09:57:45;5.25;;;3.00;;
20078;SDS011;10199;48.850;8.924;2023-10-13T10:00:24;4.97;;;2.63;;
20078;SDS011;10199;48.850;8.924;2023-10-13T10:03:24;9.88;;;3.28;;
20078;SDS011;10199;48.850;8.924;2023-10-13T10:06:06;7.20;;;3.08;;
20078;SDS011;10199;48.850;8.924;2023-10-13T10:08:41;5.88;;;2.70;;
20078;SDS011;10199;48.850;8.924;2023-10-13T10:11:19;6.18;;;3.17;;
20078;SDS011;10199;48.850;8.924;2023-10-13T10:14:01;5.60;;;2.85;;
20078;SDS011;10199;48.850;8.924;2023-10-13T10:16:38;5.68;;;2.75;;
20078;SDS011;10199;48.850;8.924;2023-10-13T10:19:17;3.97;;;2.65;;
20078;SDS011;10199;48.850;8.924;2023-10-13T10:21:46;6.60;;;2.80;;
20078;SDS011;10199;48.850;8.924;2023-10-13T10:24:15;5.75;;;3.13;;
20078;SDS011;10199;48.850;8.924;2023-10-13T10:26:50;6.88;;;2.67;;
20078;SDS011;10199;48.850;8.924;2023-10-13T10:29:19;7.22;;;3.40;;
20078;SDS011;10199;48.850;8.924;2023-10-13T10:31:47;7.32;;;2.75;;
20078;SDS011;10199;48.850;8.924;2023-10-13T10:34:18;5.68;;;3.20;;
20078;SDS011;10199;48.850;8.924;2023-10-13T10:36:47;4.93;;;2.92;;
20078;SDS011;10199;48.850;8.924;2023-10-13T10:39:20;4.07;;;2.58;;
20078;SDS011;10199;48.850;8.924;2023-10-13T10:42:07;4.68;;;3.13;;
20078;SDS011;10199;48.850;8.924;2023-10-13T10:44:42;5.68;;;2.78;;
20078;SDS011;10199;48.850;8.924;2023-10-13T10:47:10;6.82;;;2.95;;
20078;SDS011;10199;48.850;8.924;2023-10-13T10:49:47;5.78;;;2.60;;
20078;SDS011;10199;48.850;8.924;2023-10-13T10:52:16;6.38;;;3.22;;
20078;SDS011;10199;48.850;8.924;2023-10-13T10:54:57;4.28;;;2.65;;
20078;SDS011;10199;48.850;8.924;2023-10-13T10:57:26;4.90;;;2.58;;
20078;SDS011;10199;48.850;8.924;2023-10-13T10:59:57;5.13;;;2.97;;
20078;SDS011;10199;48.850;8.924;2023-10-13T11:02:37;4.28;;;2.83;;
20078;SDS011;10199;48.850;8.924;2023-10-13T11:05:07;4.63;;;2.47;;
20078;SDS011;10199;48.850;8.924;2023-10-13T11:07:36;6.97;;;3.20;;
20078;SDS011;10199;48.850;8.924;2023-10-13T11:10:07;4.75;;;2.65;;
20078;SDS011;10199;48.850;8.924;2023-10-13T11:12:40;4.78;;;2.92;;
20078;SDS011;10199;48.850;8.924;2023-10-13T11:15:10;4.20;;;2.90;;
20078;SDS011;10199;48.850;8.924;2023-10-13T11:17:47;5.38;;;2.97;;
20078;SDS011;10199;48.850;8.924;2023-10-13T11:20:19;7.95;;;3.22;;
20078;SDS011;10199;48.850;8.924;2023-10-13T11:23:00;7.97;;;3.22;;
20078;SDS011;10199;48.850;8.924;2023-10-13T11:25:31;5.82;;;2.50;;
20078;SDS011;10199;48.850;8.924;2023-10-13T11:28:11;5.20;;;3.05;;
20078;SDS011;10199;48.850;8.924;2023-10-13T11:30:46;6.00;;;3.00;;
20078;SDS011;10199;48.850;8.924;2023-10-13T11:33:17;3.08;;;2.42;;
20078;SDS011;10199;48.850;8.924;2023-10-13T11:35:51;3.63;;;2.63;;
20078;SDS011;10199;48.850;8.924;2023-10-13T11:38:29;6.90;;;2.92;;
20078;SDS011;10199;48.850;8.924;2023-10-13T11:41:09;7.80;;;2.90;;
20078;SDS011;10199;48.850;8.924;2023-10-13T11:43:41;4.53;;;2.80;;
20078;SDS011;10199;48.850;8.924;2023-10-13T11:46:20;5.55;;;3.15;;
20078;SDS011;10199;48.850;8.924;2023-10-13T11:49:07;4.35;;;2.55;;
20078;SDS011;10199;48.850;8.924;2023-10-13T11:51:46;5.85;;;2.67;;
20078;SDS011;10199;48.850;8.924;2023-10-13T11:54:15;5.47;;;2.97;;
20078;SDS011;10199;48.850;8.924;2023-10-13T11:56:44;5.10;;;3.10;;
20078;SDS011;10199;48.850;8.924;2023-10-13T11:59:13;5.88;;;2.65;;
20078;SDS011;10199;48.850;8.924;2023-10-13T12:01:44;3.70;;;2.13;;
20078;SDS011;10199;48.850;8.924;2023-10-13T12:04:26;5.13;;;2.53;;
20078;SDS011;10199;48.850;8.924;2023-10-13T12:07:11;5.72;;;2.45;;
20078;SDS011;10199;48.850;8.924;2023-10-13T12:09:44;5.57;;;2.97;;
20078;SDS011;10199;48.850;8.924;2023-10-13T12:12:33;6.47;;;2.53;;
20078;SDS011;10199;48.850;8.924;2023-10-13T12:15:07;6.65;;;2.80;;
20078;SDS011;10199;48.850;8.924;2023-10-13T12:17:51;4.40;;;2.33;;
20078;SDS011;10199;48.850;8.924;2023-10-13T12:20:20;5.00;;;2.75;;
20078;SDS011;10199;48.850;8.924;2023-10-13T12:23:00;3.58;;;2.55;;
20078;SDS011;10199;48.850;8.924;2023-10-13T12:25:42;4.75;;;2.47;;
20078;SDS011;10199;48.850;8.924;2023-10-13T12:28:24;5.97;;;3.08;;
20078;SDS011;10199;48.850;8.924;2023-10-13T12:30:54;6.30;;;3.05;;
20078;SDS011;10199;48.850;8.924;2023-10-13T12:33:24;6.07;;;2.78;;
20078;SDS011;10199;48.850;8.924;2023-10-13T12:35:57;7.13;;;2.95;;
20078;SDS011;10199;48.850;8.924;2023-10-13T12:38:35;7.45;;;2.97;;
20078;SDS011;10199;48.850;8.924;2023-10-13T12:41:38;4.25;;;2.72;;
20078;SDS011;10199;48.850;8.924;2023-10-13T12:44:24;9.15;;;2.75;;
20078;SDS011;10199;48.850;8.924;2023-10-13T12:47:09;6.82;;;2.90;;
20078;SDS011;10199;48.850;8.924;2023-10-13T12:49:56;6.13;;;2.60;;
20078;SDS011;10199;48.850;8.924;2023-10-13T12:52:34;8.02;;;2.83;;
20078;SDS011;10199;48.850;8.924;2023-10-13T12:55:04;3.83;;;2.70;;
20078;SDS011;10199;48.850;8.924;2023-10-13T12:57:36;3.72;;;2.53;;
20078;SDS011;10199;48.850;8.924;2023-10-13T13:00:15;4.13;;;2.40;;
20078;SDS011;10199;48.850;8.924;2023-10-13T13:02:53;4.43;;;2.60;;
20078;SDS011;10199;48.850;8.924;2023-10-13T13:05:22;4.05;;;2.80;;
20078;SDS011;10199;48.850;8.924;2023-10-13T13:07:55;8.93;;;2.83;;
20078;SDS011;10199;48.850;8.924;2023-10-13T13:10:24;4.45;;;3.00;;
20078;SDS011;10199;48.850;8.924;2023-10-13T13:13:02;5.88;;;2.60;;
20078;SDS011;10199;48.850;8.924;2023-10-13T13:15:31;4.57;;;2.55;;
20078;SDS011;10199;48.850;8.924;2023-10-13T13:17:59;6.18;;;2.20;;
20078;SDS011;10199;48.850;8.924;2023-10-13T13:20:37;4.22;;;2.70;;
20078;SDS011;10199;48.850;8.924;2023-10-13T13:23:20;4.18;;;2.42;;
20078;SDS011;10199;48.850;8.924;2023-10-13T13:25:50;6.30;;;2.60;;
20078;SDS011;10199;48.850;8.924;2023-10-13T13:28:19;3.70;;;2.92;;
20078;SDS011;10199;48.850;8.924;2023-10-13T13:30:50;6.90;;;2.72;;
20078;SDS011;10199;48.850;8.924;2023-10-13T13:33:21;9.32;;;2.80;;
20078;SDS011;10199;48.850;8.924;2023-10-13T13:35:54;7.90;;;3.00;;
20078;SDS011;10199;48.850;8.924;2023-10-13T13:38:26;4.85;;;2.78;;
20078;SDS011;10199;48.850;8.924;2023-10-13T13:40:59;5.10;;;2.70;;
20078;SDS011;10199;48.850;8.924;2023-10-13T13:43:29;6.18;;;3.00;;
20078;SDS011;10199;48.850;8.924;2023-10-13T13:46:04;6.88;;;2.67;;
20078;SDS011;10199;48.850;8.924;2023-10-13T13:48:35;4.22;;;2.75;;
20078;SDS011;10199;48.850;8.924;2023-10-13T13:51:04;4.70;;;2.67;;
20078;SDS011;10199;48.850;8.924;2023-10-13T13:53:39;8.18;;;2.95;;
20078;SDS011;10199;48.850;8.924;2023-10-13T13:56:12;7.40;;;2.92;;
20078;SDS011;10199;48.850;8.924;2023-10-13T13:58:42;4.68;;;2.60;;
20078;SDS011;10199;48.850;8.924;2023-10-13T14:01:10;7.00;;;2.55;;
20078;SDS011;10199;48.850;8.924;2023-10-13T14:03:42;4.47;;;2.65;;
20078;SDS011;10199;48.850;8.924;2023-10-13T14:06:13;3.38;;;2.50;;
20078;SDS011;10199;48.850;8.924;2023-10-13T14:08:45;7.43;;;3.10;;
20078;SDS011;10199;48.850;8.924;2023-10-13T14:11:16;6.13;;;3.25;;
20078;SDS011;10199;48.850;8.924;2023-10-13T14:14:10;6.28;;;2.90;;
20078;SDS011;10199;48.850;8.924;2023-10-13T14:16:38;3.55;;;2.00;;
20078;SDS011;10199;48.850;8.924;2023-10-13T14:19:11;7.22;;;2.92;;
20078;SDS011;10199;48.850;8.924;2023-10-13T14:21:39;6.38;;;2.47;;
20078;SDS011;10199;48.850;8.924;2023-10-13T14:24:07;4.53;;;2.95;;
20078;SDS011;10199;48.850;8.924;2023-10-13T14:26:44;8.48;;;2.72;;
20078;SDS011;10199;48.850;8.924;2023-10-13T14:29:12;4.22;;;2.17;;
20078;SDS011;10199;48.850;8.924;2023-10-13T14:31:42;5.38;;;2.47;;
20078;SDS011;10199;48.850;8.924;2023-10-13T14:34:10;4.07;;;2.50;;
20078;SDS011;10199;48.850;8.924;2023-10-13T14:36:39;4.40;;;2.67;;
20078;SDS011;10199;48.850;8.924;2023-10-13T14:39:07;4.35;;;2.38;;
20078;SDS011;10199;48.850;8.924;2023-10-13T14:41:36;4.60;;;2.42;;
20078;SDS011;10199;48.850;8.924;2023-10-13T14:44:06;5.20;;;2.42;;
20078;SDS011;10199;48.850;8.924;2023-10-13T14:46:35;5.28;;;2.95;;
20078;SDS011;10199;48.850;8.924;2023-10-13T14:49:05;6.75;;;2.85;;
20078;SDS011;10199;48.850;8.924;2023-10-13T14:51:34;3.90;;;2.58;;
20078;SDS011;10199;48.850;8.924;2023-10-13T14:54:06;4.65;;;2.83;;
20078;SDS011;10199;48.850;8.924;2023-10-13T14:56:34;5.82;;;2.33;;
20078;SDS011;10199;48.850;8.924;2023-10-13T14:59:02;5.85;;;2.42;;
20078;SDS011;10199;48.850;8.924;2023-10-13T15:01:32;4.68;;;2.90;;
20078;SDS011;10199;48.850;8.924;2023-10-13T15:04:02;5.32;;;2.45;;
20078;SDS011;10199;48.850;8.924;2023-10-13T15:06:31;4.80;;;2.38;;
20078;SDS011;10199;48.850;8.924;2023-10-13T15:08:59;6.28;;;3.05;;
20078;SDS011;10199;48.850;8.924;2023-10-13T15:11:31;5.00;;;2.75;;
20078;SDS011;10199;48.850;8.924;2023-10-13T15:14:07;4.15;;;2.67;;
20078;SDS011;10199;48.850;8.924;2023-10-13T15:16:36;6.28;;;2.80;;
20078;SDS011;10199;48.850;8.924;2023-10-13T15:19:04;5.03;;;2.85;;
20078;SDS011;10199;48.850;8.924;2023-10-13T15:21:33;5.10;;;2.90;;
20078;SDS011;10199;48.850;8.924;2023-10-13T15:24:02;8.38;;;2.72;;
20078;SDS011;10199;48.850;8.924;2023-10-13T15:26:47;5.93;;;2.80;;
20078;SDS011;10199;48.850;8.924;2023-10-13T15:29:15;8.02;;;2.60;;
20078;SDS011;10199;48.850;8.924;2023-10-13T15:31:46;3.75;;;2.28;;
20078;SDS011;10199;48.850;8.924;2023-10-13T15:34:31;4.65;;;2.65;;
20078;SDS011;10199;48.850;8.924;2023-10-13T15:37:00;5.28;;;2.67;;